Time;durP1;ratioP1;P1;durP2;ratioP2;P2;SDS_P1;SDS_P2;PMS_P1;PMS_P2;Temp;Humidity;BMP_temperature;BMP_pressure;BME280_temperature;BME280_humidity;BME280_pressure;Samples;Min_cycle;Max_cycle;Signal;HPM_P1;HPM_P2
2022/04/10 00:02:10;;;;;;;;;;;7.20;69.10;;;;;;4994089;28;20392;-59
2022/04/10 00:04:35;;;;;;;;;;;7.20;68.00;;;;;;4992848;28;19909;-57
2022/04/10 00:07:01;;;;;;;;;;;7.20;69.00;;;;;;4994053;28;19910;-57
2022/04/10 00:09:26;;;;;;;;;;;7.10;68.40;;;;;;4993887;28;19921;-57
2022/04/10 00:11:52;;;;;;;;;;;7.20;67.50;;;;;;4994010;28;19910;-56
2022/04/10 00:14:17;;;;;;;;;;;7.10;68.60;;;;;;4994035;28;20013;-56
2022/04/10 00:16:43;;;;;;;;;;;7.10;68.40;;;;;;4994149;28;19910;-57
2022/04/10 00:19:08;;;;;;;;;;;6.90;69.00;;;;;;4994240;28;20301;-57
2022/04/10 00:21:34;;;;;;;;;;;6.80;67.70;;;;;;4994094;28;19914;-58
2022/04/10 00:24:00;;;;;;;;;;;6.90;66.00;;;;;;4994168;28;19914;-56
2022/04/10 00:26:26;;;;;;;;;;;6.90;68.30;;;;;;4997753;28;20305;-56
2022/04/10 00:28:51;;;;;;;;;;;6.90;69.00;;;;;;4997657;28;19910;-58
2022/04/10 00:31:20;;;;;;;;;;;6.90;69.40;;;;;;4997410;28;20345;-58
2022/04/10 00:33:46;;;;;;;;;;;6.80;68.80;;;;;;4997411;28;19914;-58
2022/04/10 00:36:11;;;;;;;;;;;6.80;67.50;;;;;;4996320;28;19953;-59
2022/04/10 00:38:37;;;;;;;;;;;6.80;68.00;;;;;;4997472;28;19956;-57
2022/04/10 00:41:03;;;;;;;;;;;6.70;69.20;;;;;;4997383;28;19909;-57
2022/04/10 00:43:32;;;;;;;;;;;6.60;69.40;;;;;;4997015;28;19921;-57
2022/04/10 00:45:58;;;;;;;;;;;6.60;69.00;;;;;;4997194;28;19910;-57
2022/04/10 00:48:24;;;;;;;;;;;6.60;68.20;;;;;;4997105;28;19910;-56
2022/04/10 00:53:34;;;;;;;;;;;6.60;69.90;;;;;;4997219;28;20277;-57
2022/04/10 00:56:00;;;;;;;;;;;6.60;69.30;;;;;;4996934;28;19921;-56
2022/04/10 00:58:27;;;;;;;;;;;6.50;69.70;;;;;;4997156;28;20409;-58
2022/04/10 01:00:53;;;;;;;;;;;6.50;69.70;;;;;;4997053;28;19968;-58
2022/04/10 01:03:18;;;;;;;;;;;6.50;69.30;;;;;;4997018;28;19918;-58
2022/04/10 01:05:45;;;;;;;;;;;6.40;69.90;;;;;;4996775;28;19910;-58
2022/04/10 01:08:11;;;;;;;;;;;6.60;67.90;;;;;;4997137;28;20322;-57
2022/04/10 01:10:36;;;;;;;;;;;6.80;66.90;;;;;;4996833;28;19921;-58
2022/04/10 01:13:02;;;;;;;;;;;6.70;66.70;;;;;;4996670;28;19910;-58
2022/04/10 01:15:27;;;;;;;;;;;6.60;69.30;;;;;;4996870;28;19917;-58
2022/04/10 01:17:53;;;;;;;;;;;6.60;69.50;;;;;;4996526;28;19910;-58
2022/04/10 01:20:20;;;;;;;;;;;6.60;69.50;;;;;;4996652;28;19965;-58
2022/04/10 01:22:46;;;;;;;;;;;6.60;70.80;;;;;;4996655;28;19968;-57
2022/04/10 01:25:11;;;;;;;;;;;6.60;71.00;;;;;;4996425;28;19980;-57
2022/04/10 01:27:37;;;;;;;;;;;6.60;69.70;;;;;;4996683;28;19913;-58
2022/04/10 01:30:04;;;;;;;;;;;6.80;66.70;;;;;;4996445;28;19910;-58
2022/04/10 01:32:29;;;;;;;;;;;7.10;63.20;;;;;;4995163;28;19910;-57
2022/04/10 01:34:57;;;;;;;;;;;7.20;62.30;;;;;;4995537;28;19910;-57
2022/04/10 01:37:23;;;;;;;;;;;7.60;59.30;;;;;;4996072;28;20437;-57
2022/04/10 01:39:49;;;;;;;;;;;7.70;58.60;;;;;;4996665;28;19909;-58
2022/04/10 01:42:14;;;;;;;;;;;7.90;58.40;;;;;;4996271;28;19954;-57
2022/04/10 01:44:43;;;;;;;;;;;7.80;59.20;;;;;;4996074;28;19917;-57
2022/04/10 01:47:09;;;;;;;;;;;7.80;58.80;;;;;;4995971;28;19925;-56
2022/04/10 01:49:34;;;;;;;;;;;7.60;59.00;;;;;;4996111;28;19917;-56
2022/04/10 01:52:00;;;;;;;;;;;7.60;59.40;;;;;;4995735;28;19910;-56
2022/04/10 01:54:25;;;;;;;;;;;7.60;59.60;;;;;;4996143;28;19913;-56
2022/04/10 01:56:51;;;;;;;;;;;7.50;59.30;;;;;;4995728;28;19933;-56
2022/04/10 01:59:16;;;;;;;;;;;7.70;58.90;;;;;;4995984;28;20320;-57
2022/04/10 02:01:42;;;;;;;;;;;7.70;58.80;;;;;;4995599;28;20305;-56
2022/04/10 02:04:08;;;;;;;;;;;7.70;58.30;;;;;;4995589;28;19936;-56
2022/04/10 02:06:37;;;;;;;;;;;7.70;58.60;;;;;;4995787;28;19909;-57
2022/04/10 02:09:09;;;;;;;;;;;7.60;58.40;;;;;;4995653;28;19910;-57
2022/04/10 02:11:35;;;;;;;;;;;7.60;58.60;;;;;;4995399;28;19910;-57
2022/04/10 02:14:00;;;;;;;;;;;7.50;59.10;;;;;;4995688;28;19910;-57
2022/04/10 02:16:26;;;;;;;;;;;7.50;58.90;;;;;;4995572;28;19937;-57
2022/04/10 02:18:51;;;;;;;;;;;7.60;58.60;;;;;;4995410;28;19909;-56
2022/04/10 02:21:17;;;;;;;;;;;7.50;58.90;;;;;;4995311;28;19988;-58
2022/04/10 02:23:43;;;;;;;;;;;7.50;59.20;;;;;;4995323;28;20297;-57
2022/04/10 02:26:10;;;;;;;;;;;7.60;58.60;;;;;;4995387;28;19917;-56
2022/04/10 02:28:36;;;;;;;;;;;7.50;58.20;;;;;;4995396;28;19996;-57
2022/04/10 02:31:01;;;;;;;;;;;7.60;58.20;;;;;;4995247;28;19949;-57
2022/04/10 02:33:27;;;;;;;;;;;7.60;58.50;;;;;;4995135;28;19937;-57
2022/04/10 02:35:53;;;;;;;;;;;7.60;58.10;;;;;;4993900;28;19914;-57
2022/04/10 02:38:19;;;;;;;;;;;7.60;57.90;;;;;;4994994;28;19945;-57
2022/04/10 02:40:44;;;;;;;;;;;7.40;58.60;;;;;;4995248;28;19936;-57
2022/04/10 02:43:10;;;;;;;;;;;7.50;58.80;;;;;;4994934;28;20017;-57
2022/04/10 02:45:37;;;;;;;;;;;7.50;58.20;;;;;;4994939;28;19914;-57
2022/04/10 02:48:02;;;;;;;;;;;7.50;58.40;;;;;;4994915;28;20281;-57
2022/04/10 02:50:28;;;;;;;;;;;7.50;58.00;;;;;;4995063;28;19910;-58
2022/04/10 02:52:54;;;;;;;;;;;7.40;58.30;;;;;;4994839;28;20297;-57
2022/04/10 02:55:20;;;;;;;;;;;7.50;58.60;;;;;;4994759;28;19981;-57
2022/04/10 02:57:45;;;;;;;;;;;7.60;57.70;;;;;;4995032;28;20023;-57
2022/04/10 03:00:11;;;;;;;;;;;7.60;57.80;;;;;;4994601;28;19956;-57
2022/04/10 03:02:41;;;;;;;;;;;7.40;58.20;;;;;;4994466;28;19918;-57
2022/04/10 03:05:09;;;;;;;;;;;7.50;59.20;;;;;;4994944;28;19910;-57
2022/04/10 03:07:34;;;;;;;;;;;7.30;59.90;;;;;;4994571;28;19910;-57
2022/04/10 03:10:00;;;;;;;;;;;7.20;61.50;;;;;;4994673;28;20336;-57
2022/04/10 03:12:26;;;;;;;;;;;7.00;62.40;;;;;;4994737;28;19909;-57
2022/04/10 03:14:51;;;;;;;;;;;7.10;63.40;;;;;;4994452;28;20345;-57
2022/04/10 03:17:17;;;;;;;;;;;7.10;64.10;;;;;;4994988;28;20000;-57
2022/04/10 03:19:42;;;;;;;;;;;6.90;65.30;;;;;;4994690;28;19910;-57
2022/04/10 03:22:08;;;;;;;;;;;6.90;64.90;;;;;;4994589;28;19914;-57
2022/04/10 03:24:33;;;;;;;;;;;6.80;65.30;;;;;;4994424;28;19997;-57
2022/04/10 03:26:59;;;;;;;;;;;6.70;65.70;;;;;;4994365;28;20392;-57
2022/04/10 03:29:25;;;;;;;;;;;6.70;66.40;;;;;;4994293;28;20328;-57
2022/04/10 03:31:50;;;;;;;;;;;6.60;66.80;;;;;;4994433;28;19910;-57
2022/04/10 03:34:16;;;;;;;;;;;6.60;66.70;;;;;;4994404;28;19953;-57
2022/04/10 03:36:41;;;;;;;;;;;6.50;67.00;;;;;;4994628;28;20424;-57
2022/04/10 03:39:07;;;;;;;;;;;6.40;67.50;;;;;;4994408;28;20004;-57
2022/04/10 03:41:32;;;;;;;;;;;6.30;68.30;;;;;;4994151;28;19910;-57
2022/04/10 03:43:58;;;;;;;;;;;6.30;68.70;;;;;;4994430;28;20269;-57
2022/04/10 03:46:23;;;;;;;;;;;6.20;69.50;;;;;;4994640;28;20046;-57
2022/04/10 03:48:49;;;;;;;;;;;6.10;69.30;;;;;;4994279;28;19917;-57
2022/04/10 03:51:14;;;;;;;;;;;6.10;69.70;;;;;;4994200;28;19910;-57
2022/04/10 03:53:40;;;;;;;;;;;6.10;68.30;;;;;;4994260;28;19933;-56
2022/04/10 03:56:06;;;;;;;;;;;6.10;69.00;;;;;;4993987;28;19922;-57
2022/04/10 03:58:32;;;;;;;;;;;6.00;69.40;;;;;;4994815;28;19910;-57
2022/04/10 04:00:57;;;;;;;;;;;6.00;69.40;;;;;;4997965;28;19910;-57
2022/04/10 04:03:23;;;;;;;;;;;6.00;70.00;;;;;;4997881;28;20324;-56
2022/04/10 04:05:48;;;;;;;;;;;5.90;70.10;;;;;;4998062;28;19916;-57
2022/04/10 04:08:15;;;;;;;;;;;5.90;70.50;;;;;;4997902;28;19992;-57
2022/04/10 04:10:41;;;;;;;;;;;5.90;70.40;;;;;;4997925;28;19910;-57
2022/04/10 04:13:06;;;;;;;;;;;5.80;70.30;;;;;;4997681;28;20338;-57
2022/04/10 04:15:32;;;;;;;;;;;5.70;71.20;;;;;;4997910;28;20008;-56
2022/04/10 04:17:58;;;;;;;;;;;5.70;71.20;;;;;;4997745;28;19916;-57
2022/04/10 04:20:23;;;;;;;;;;;5.60;71.00;;;;;;4997934;28;19917;-56
2022/04/10 04:22:49;;;;;;;;;;;5.60;71.30;;;;;;4997604;28;20004;-56
2022/04/10 04:25:15;;;;;;;;;;;5.60;71.40;;;;;;4997591;28;19910;-56
2022/04/10 04:27:41;;;;;;;;;;;5.60;71.50;;;;;;4997406;28;19909;-56
2022/04/10 04:30:06;;;;;;;;;;;5.60;71.70;;;;;;4997741;28;19914;-57
2022/04/10 04:32:32;;;;;;;;;;;5.60;71.70;;;;;;4997578;28;19910;-56
2022/04/10 04:34:57;;;;;;;;;;;5.60;72.30;;;;;;4997361;28;19914;-57
2022/04/10 04:37:23;;;;;;;;;;;5.60;71.70;;;;;;4997563;28;19916;-57
2022/04/10 04:39:49;;;;;;;;;;;5.60;72.20;;;;;;4997306;28;19917;-58
2022/04/10 04:42:14;;;;;;;;;;;5.60;72.10;;;;;;4997122;28;19914;-57
2022/04/10 04:44:40;;;;;;;;;;;5.60;71.50;;;;;;4997239;28;19917;-57
2022/04/10 04:47:06;;;;;;;;;;;5.60;70.80;;;;;;4997050;28;19910;-56
2022/04/10 04:49:31;;;;;;;;;;;5.60;70.80;;;;;;4997081;28;19968;-57
2022/04/10 04:51:57;;;;;;;;;;;5.70;70.80;;;;;;4997107;28;19913;-57
2022/04/10 04:54:22;;;;;;;;;;;5.70;71.00;;;;;;4997080;28;20357;-57
2022/04/10 04:56:48;;;;;;;;;;;5.60;70.90;;;;;;4996713;28;19926;-57
2022/04/10 04:59:14;;;;;;;;;;;5.70;71.30;;;;;;4997064;28;19910;-57
2022/04/10 05:01:43;;;;;;;;;;;5.60;71.20;;;;;;4996628;28;19964;-57
2022/04/10 05:04:09;;;;;;;;;;;5.60;71.70;;;;;;4996908;28;19917;-57
2022/04/10 05:06:35;;;;;;;;;;;5.60;71.20;;;;;;4997312;28;20269;-56
2022/04/10 05:09:01;;;;;;;;;;;5.70;69.90;;;;;;4997000;28;19914;-56
2022/04/10 05:11:26;;;;;;;;;;;5.80;68.00;;;;;;4996491;28;20388;-57
2022/04/10 05:13:52;;;;;;;;;;;5.90;67.90;;;;;;4996882;28;19960;-57
2022/04/10 05:16:18;;;;;;;;;;;5.90;67.90;;;;;;4996845;28;19914;-57
2022/04/10 05:18:43;;;;;;;;;;;5.90;68.00;;;;;;4996764;28;19910;-57
2022/04/10 05:21:09;;;;;;;;;;;5.90;68.40;;;;;;4996457;28;19917;-57
2022/04/10 05:23:35;;;;;;;;;;;5.90;68.10;;;;;;4996524;28;19925;-57
2022/04/10 05:26:00;;;;;;;;;;;5.80;69.00;;;;;;4996427;28;19910;-57
2022/04/10 05:28:26;;;;;;;;;;;5.80;69.90;;;;;;4996608;28;20047;-57
2022/04/10 05:30:52;;;;;;;;;;;5.80;70.30;;;;;;4996332;28;19964;-57
2022/04/10 05:33:17;;;;;;;;;;;5.70;70.30;;;;;;4996641;28;19909;-57
2022/04/10 05:35:43;;;;;;;;;;;5.70;70.90;;;;;;4996269;28;19910;-57
2022/04/10 05:38:08;;;;;;;;;;;5.70;70.80;;;;;;4995993;28;20309;-57
2022/04/10 05:40:34;;;;;;;;;;;5.70;71.10;;;;;;4996171;28;20309;-58
2022/04/10 05:42:59;;;;;;;;;;;5.70;71.40;;;;;;4995831;28;19929;-57
2022/04/10 05:45:26;;;;;;;;;;;5.70;71.70;;;;;;4996329;28;19988;-57
2022/04/10 05:47:51;;;;;;;;;;;5.90;70.20;;;;;;4995761;28;19910;-57
2022/04/10 05:50:17;;;;;;;;;;;6.00;69.70;;;;;;4994578;28;19910;-57
2022/04/10 05:52:46;;;;;;;;;;;6.00;69.10;;;;;;4995957;28;19917;-57
2022/04/10 05:55:13;;;;;;;;;;;6.00;69.50;;;;;;4995700;28;19910;-58
2022/04/10 05:57:39;;;;;;;;;;;6.00;70.30;;;;;;4995743;28;19913;-57
2022/04/10 06:00:07;;;;;;;;;;;6.20;68.50;;;;;;4995918;28;19910;-58
2022/04/10 06:02:33;;;;;;;;;;;6.40;66.70;;;;;;4995644;28;19921;-57
2022/04/10 06:04:58;;;;;;;;;;;6.30;69.20;;;;;;4995863;28;19910;-58
2022/04/10 06:07:24;;;;;;;;;;;6.40;69.60;;;;;;4995727;28;19917;-58
2022/04/10 06:09:50;;;;;;;;;;;6.50;70.40;;;;;;4995508;28;19945;-57
2022/04/10 06:12:15;;;;;;;;;;;7.00;68.70;;;;;;4995593;28;19913;-56
2022/04/10 06:14:41;;;;;;;;;;;7.80;79.50;;;;;;4995568;28;19965;-55
2022/04/10 06:17:09;;;;;;;;;;;8.60;75.00;;;;;;4995880;28;20242;-57
2022/04/10 06:19:35;;;;;;;;;;;9.20;63.70;;;;;;4995324;28;19937;-56
2022/04/10 06:22:00;;;;;;;;;;;9.60;60.90;;;;;;4994799;28;19914;-56
2022/04/10 06:24:27;;;;;;;;;;;10.10;60.90;;;;;;4995220;28;19989;-56
2022/04/10 06:26:53;;;;;;;;;;;10.50;57.80;;;;;;4995133;28;19909;-57
2022/04/10 06:29:18;;;;;;;;;;;10.90;57.30;;;;;;4995283;28;19917;-56
2022/04/10 06:31:44;;;;;;;;;;;11.30;56.00;;;;;;4995351;28;20055;-55
2022/04/10 06:34:10;;;;;;;;;;;11.50;54.70;;;;;;4995039;28;19910;-55
2022/04/10 06:36:35;;;;;;;;;;;11.40;52.90;;;;;;4995037;28;20013;-54
2022/04/10 06:39:01;;;;;;;;;;;11.30;53.70;;;;;;4995280;28;19928;-55
2022/04/10 06:41:26;;;;;;;;;;;11.20;52.30;;;;;;4994678;28;19921;-57
2022/04/10 06:43:52;;;;;;;;;;;11.00;50.30;;;;;;4995159;28;19918;-53
2022/04/10 06:46:17;;;;;;;;;;;11.30;53.00;;;;;;4995059;28;19921;-57
2022/04/10 06:48:43;;;;;;;;;;;11.30;52.60;;;;;;4994903;28;19910;-54
2022/04/10 06:51:09;;;;;;;;;;;11.30;51.70;;;;;;4994551;28;19916;-54
2022/04/10 06:53:34;;;;;;;;;;;11.50;52.30;;;;;;4994954;28;20368;-56
2022/04/10 06:56:00;;;;;;;;;;;11.70;48.90;;;;;;4994812;28;19928;-57
2022/04/10 06:58:25;;;;;;;;;;;11.90;48.40;;;;;;4993528;28;19922;-63
2022/04/10 07:00:51;;;;;;;;;;;12.10;48.50;;;;;;4993855;28;19928;-57
2022/04/10 07:03:17;;;;;;;;;;;12.50;48.30;;;;;;4993985;28;20302;-55
2022/04/10 07:05:43;;;;;;;;;;;12.80;48.10;;;;;;4993683;28;19921;-57
2022/04/10 07:08:09;;;;;;;;;;;13.00;46.70;;;;;;4993749;28;19910;-57
2022/04/10 07:10:36;;;;;;;;;;;13.20;46.10;;;;;;4993632;28;19910;-59
2022/04/10 07:13:02;;;;;;;;;;;13.30;44.30;;;;;;4992327;28;20338;-58
2022/04/10 07:15:27;;;;;;;;;;;13.00;45.50;;;;;;4992607;28;20001;-58
2022/04/10 07:17:55;;;;;;;;;;;13.20;45.30;;;;;;4993993;28;19958;-57
2022/04/10 07:20:20;;;;;;;;;;;13.20;44.70;;;;;;4994411;28;19910;-58
2022/04/10 07:25:30;;;;;;;;;;;12.70;46.70;;;;;;4994322;28;19997;-57
2022/04/10 07:27:55;;;;;;;;;;;12.60;45.60;;;;;;4994200;28;19910;-55
2022/04/10 07:30:21;;;;;;;;;;;13.00;45.80;;;;;;4994261;28;19909;-56
2022/04/10 07:32:50;;;;;;;;;;;13.10;44.50;;;;;;4993989;28;20397;-55
2022/04/10 07:35:16;;;;;;;;;;;12.80;44.80;;;;;;4993929;28;19913;-56
2022/04/10 07:37:41;;;;;;;;;;;12.20;45.50;;;;;;5006647;28;19917;-57
2022/04/10 07:40:07;;;;;;;;;;;11.90;46.50;;;;;;5007542;28;19913;-56
2022/04/10 07:42:37;;;;;;;;;;;12.10;47.00;;;;;;5008257;28;19917;-56
2022/04/10 07:45:03;;;;;;;;;;;12.50;46.80;;;;;;4999910;28;20276;-56
2022/04/10 07:47:31;;;;;;;;;;;12.40;45.80;;;;;;5001182;28;19918;-56
2022/04/10 07:49:56;;;;;;;;;;;12.60;45.60;;;;;;4997850;28;19914;-56
2022/04/10 07:52:22;;;;;;;;;;;13.00;44.80;;;;;;5001178;28;19920;-54
2022/04/10 07:54:49;;;;;;;;;;;13.40;44.60;;;;;;4997151;28;19924;-54
2022/04/10 07:57:16;;;;;;;;;;;13.50;43.30;;;;;;4995809;28;20428;-55
2022/04/10 07:59:42;;;;;;;;;;;13.70;43.90;;;;;;4999644;28;19921;-55
2022/04/10 08:02:07;;;;;;;;;;;13.30;43.90;;;;;;5000088;28;20017;-54
2022/04/10 08:04:33;;;;;;;;;;;13.50;45.20;;;;;;5000707;28;20328;-57
2022/04/10 08:06:58;;;;;;;;;;;13.80;45.20;;;;;;4997192;28;19909;-54
2022/04/10 08:09:24;;;;;;;;;;;13.60;46.10;;;;;;4998021;28;19995;-54
2022/04/10 08:11:50;;;;;;;;;;;13.50;44.90;;;;;;5005331;28;20263;-54
2022/04/10 08:14:16;;;;;;;;;;;13.30;45.70;;;;;;5005915;28;19933;-55
2022/04/10 08:16:41;;;;;;;;;;;13.30;45.70;;;;;;5007823;28;19921;-55
2022/04/10 08:19:07;;;;;;;;;;;13.60;46.50;;;;;;5007018;28;20389;-54
2022/04/10 08:21:32;;;;;;;;;;;13.70;44.20;;;;;;5002942;28;19918;-54
2022/04/10 08:23:58;;;;;;;;;;;13.50;45.70;;;;;;5005655;28;19964;-54
2022/04/10 08:26:24;;;;;;;;;;;13.80;47.60;;;;;;5007149;28;19960;-54
2022/04/10 08:28:49;;;;;;;;;;;13.70;44.90;;;;;;5006559;28;20282;-57
2022/04/10 08:31:15;;;;;;;;;;;13.00;44.60;;;;;;5005291;28;20290;-59
2022/04/10 08:33:40;;;;;;;;;;;13.00;45.00;;;;;;5007544;28;19916;-55
2022/04/10 08:36:06;;;;;;;;;;;12.90;44.60;;;;;;5005342;28;19960;-56
2022/04/10 08:38:32;;;;;;;;;;;12.90;44.40;;;;;;5007582;28;19949;-55
2022/04/10 08:41:01;;;;;;;;;;;13.10;44.90;;;;;;5006158;28;19996;-57
2022/04/10 08:43:27;;;;;;;;;;;13.00;44.30;;;;;;5005482;28;19921;-53
2022/04/10 08:45:54;;;;;;;;;;;13.40;46.40;;;;;;5002553;28;20000;-54
2022/04/10 08:48:20;;;;;;;;;;;13.20;41.70;;;;;;5006211;28;19953;-56
2022/04/10 08:50:46;;;;;;;;;;;13.20;43.40;;;;;;5007244;28;19948;-57
2022/04/10 08:53:13;;;;;;;;;;;13.20;42.60;;;;;;5005145;28;19910;-56
2022/04/10 08:55:38;;;;;;;;;;;13.00;43.90;;;;;;5006315;28;19967;-56
2022/04/10 08:58:04;;;;;;;;;;;13.20;43.80;;;;;;5006602;28;20281;-56
2022/04/10 09:00:30;;;;;;;;;;;13.60;43.90;;;;;;5005084;28;19940;-56
2022/04/10 09:02:55;;;;;;;;;;;13.50;41.90;;;;;;5006404;28;19971;-57
2022/04/10 09:05:23;;;;;;;;;;;13.40;43.20;;;;;;5006117;28;20342;-58
2022/04/10 09:08:08;;;;;;;;;;;13.70;44.00;;;;;;5005099;28;19917;-59
2022/04/10 09:11:11;;;;;;;;;;;13.70;43.30;;;;;;5002627;28;19917;-57
2022/04/10 09:13:38;;;;;;;;;;;13.40;42.00;;;;;;4934032;29;19979;-58
2022/04/10 09:16:08;;;;;;;;;;;13.50;42.50;;;;;;4935976;29;19911;-56
2022/04/10 09:18:46;;;;;;;;;;;13.20;42.70;;;;;;4933619;29;19910;-61
2022/04/10 09:21:12;;;;;;;;;;;13.40;45.60;;;;;;4935846;29;20394;-61
2022/04/10 09:23:37;;;;;;;;;;;13.30;42.10;;;;;;4936040;29;20017;-58
2022/04/10 09:26:03;;;;;;;;;;;13.50;44.10;;;;;;4935608;29;19946;-62
2022/04/10 09:28:44;;;;;;;;;;;13.50;43.60;;;;;;4935808;29;20358;-58
2022/04/10 09:31:26;;;;;;;;;;;13.30;42.40;;;;;;4935503;29;19911;-59
2022/04/10 09:33:52;;;;;;;;;;;13.20;42.30;;;;;;4932579;29;19946;-60
2022/04/10 09:36:27;;;;;;;;;;;13.30;43.90;;;;;;4934001;29;20010;-58
2022/04/10 09:38:53;;;;;;;;;;;13.30;43.70;;;;;;4934885;29;19911;-56
2022/04/10 09:41:19;;;;;;;;;;;13.40;44.50;;;;;;4935175;29;19927;-54
2022/04/10 09:43:45;;;;;;;;;;;13.70;45.50;;;;;;4949497;28;19924;-55
2022/04/10 09:46:13;;;;;;;;;;;13.40;45.80;;;;;;5004989;28;20250;-55
2022/04/10 09:48:39;;;;;;;;;;;13.30;45.90;;;;;;5006285;28;19944;-53
2022/04/10 09:51:05;;;;;;;;;;;13.30;46.90;;;;;;4994326;28;19914;-53
2022/04/10 09:53:32;;;;;;;;;;;13.50;47.00;;;;;;4996791;28;19909;-54
2022/04/10 09:56:04;;;;;;;;;;;13.50;46.20;;;;;;4994919;28;19926;-54
2022/04/10 09:58:31;;;;;;;;;;;13.50;46.30;;;;;;5008598;28;19914;-54
2022/04/10 10:00:57;;;;;;;;;;;13.30;46.60;;;;;;4994637;28;19924;-54
2022/04/10 10:03:23;;;;;;;;;;;13.50;47.40;;;;;;4994582;28;19918;-56
2022/04/10 10:05:55;;;;;;;;;;;13.50;46.70;;;;;;4994571;28;19918;-55
2022/04/10 10:08:22;;;;;;;;;;;13.60;46.80;;;;;;4994799;28;19910;-53
2022/04/10 10:10:48;;;;;;;;;;;13.60;45.80;;;;;;4994742;28;19957;-56
2022/04/10 10:13:14;;;;;;;;;;;13.50;46.50;;;;;;5004985;28;20309;-55
2022/04/10 10:15:40;;;;;;;;;;;13.60;47.80;;;;;;4999328;28;19909;-55
2022/04/10 10:18:07;;;;;;;;;;;13.60;47.20;;;;;;4996594;28;19956;-54
2022/04/10 10:20:34;;;;;;;;;;;13.20;45.80;;;;;;4995433;28;20325;-53
2022/04/10 10:23:00;;;;;;;;;;;13.20;47.60;;;;;;4998977;28;19963;-56
2022/04/10 10:25:33;;;;;;;;;;;13.50;48.30;;;;;;4999012;28;19916;-55
2022/04/10 10:27:59;;;;;;;;;;;13.60;47.10;;;;;;4994232;28;19910;-54
2022/04/10 10:30:29;;;;;;;;;;;13.70;45.60;;;;;;4994190;28;19937;-55
2022/04/10 10:32:57;;;;;;;;;;;13.80;46.80;;;;;;5002085;28;20445;-63
2022/04/10 10:35:33;;;;;;;;;;;14.00;47.50;;;;;;5000579;28;19909;-56
2022/04/10 10:38:00;;;;;;;;;;;14.20;46.60;;;;;;5010544;28;19945;-63
2022/04/10 10:40:26;;;;;;;;;;;14.00;44.50;;;;;;5011598;28;19914;-57
2022/04/10 10:42:52;;;;;;;;;;;13.80;46.70;;;;;;5012912;28;20281;-57
2022/04/10 10:45:34;;;;;;;;;;;13.80;46.00;;;;;;5012102;28;20665;-56
2022/04/10 10:48:20;;;;;;;;;;;13.50;44.80;;;;;;5013171;28;19960;-64
2022/04/10 10:50:45;;;;;;;;;;;13.70;47.50;;;;;;5002078;28;19929;-58
2022/04/10 10:53:11;;;;;;;;;;;13.80;45.40;;;;;;5013283;28;19913;-58
2022/04/10 10:55:42;;;;;;;;;;;13.90;46.50;;;;;;5012615;28;19941;-56
2022/04/10 10:58:08;;;;;;;;;;;13.70;44.00;;;;;;5009547;28;20263;-55
2022/04/10 11:00:37;;;;;;;;;;;13.80;45.10;;;;;;4994256;28;19920;-56
2022/04/10 11:03:09;;;;;;;;;;;13.70;43.00;;;;;;4994458;28;19918;-56
2022/04/10 11:05:39;;;;;;;;;;;13.60;42.30;;;;;;4994028;28;19910;-56
2022/04/10 11:08:05;;;;;;;;;;;13.80;41.50;;;;;;4993771;28;19910;-56
2022/04/10 11:10:31;;;;;;;;;;;13.40;38.80;;;;;;4994408;28;20349;-59
2022/04/10 11:13:04;;;;;;;;;;;13.20;38.80;;;;;;4994685;28;19937;-56
2022/04/10 11:15:31;;;;;;;;;;;12.80;39.00;;;;;;4994717;28;19910;-58
2022/04/10 11:18:02;;;;;;;;;;;12.70;39.90;;;;;;4994478;28;19914;-57
2022/04/10 11:20:28;;;;;;;;;;;13.00;38.10;;;;;;4994307;28;19963;-55
2022/04/10 11:22:53;;;;;;;;;;;13.30;38.10;;;;;;4993901;28;20013;-55
2022/04/10 11:25:20;;;;;;;;;;;13.70;40.20;;;;;;4994265;28;19960;-55
2022/04/10 11:27:56;;;;;;;;;;;13.90;41.30;;;;;;4994380;28;19910;-54
2022/04/10 11:30:24;;;;;;;;;;;14.20;38.40;;;;;;4994840;28;19910;-54
2022/04/10 11:32:52;;;;;;;;;;;14.10;36.00;;;;;;4994811;28;19917;-55
2022/04/10 11:35:23;;;;;;;;;;;13.50;36.90;;;;;;4994483;28;19921;-54
2022/04/10 11:37:51;;;;;;;;;;;13.60;37.40;;;;;;4994408;28;20259;-55
2022/04/10 11:40:23;;;;;;;;;;;13.70;37.00;;;;;;4994209;28;19917;-53
2022/04/10 11:42:49;;;;;;;;;;;14.00;38.80;;;;;;4993992;28;19918;-54
2022/04/10 11:45:15;;;;;;;;;;;14.20;38.50;;;;;;4993980;28;20012;-55
2022/04/10 11:47:42;;;;;;;;;;;14.40;35.70;;;;;;4994243;28;19949;-52
2022/04/10 11:50:09;;;;;;;;;;;13.90;37.00;;;;;;4994479;28;19985;-54
2022/04/10 11:52:34;;;;;;;;;;;13.80;37.60;;;;;;4993988;28;19917;-54
2022/04/10 11:55:03;;;;;;;;;;;13.80;35.90;;;;;;4994377;28;20261;-54
2022/04/10 11:57:29;;;;;;;;;;;14.20;37.80;;;;;;4993982;28;19964;-60
2022/04/10 11:59:54;;;;;;;;;;;14.10;32.60;;;;;;4994154;28;19946;-54
2022/04/10 12:02:20;;;;;;;;;;;14.00;33.90;;;;;;4993699;28;20349;-55
2022/04/10 12:04:49;;;;;;;;;;;14.30;37.20;;;;;;4993869;28;19914;-54
2022/04/10 12:07:17;;;;;;;;;;;14.60;37.30;;;;;;4993762;28;20385;-60
2022/04/10 12:09:43;;;;;;;;;;;14.50;37.20;;;;;;4993774;28;19917;-55
2022/04/10 12:12:09;;;;;;;;;;;14.30;34.30;;;;;;4993871;28;20348;-54
2022/04/10 12:14:35;;;;;;;;;;;13.90;36.70;;;;;;4994027;28;19910;-55
2022/04/10 12:17:01;;;;;;;;;;;13.90;39.10;;;;;;4993977;28;19916;-55
2022/04/10 12:19:35;;;;;;;;;;;13.80;39.90;;;;;;4994690;28;19910;-54
2022/04/10 12:22:02;;;;;;;;;;;14.00;38.40;;;;;;4997423;28;19917;-54
2022/04/10 12:24:27;;;;;;;;;;;14.30;34.70;;;;;;4997580;28;20396;-55
2022/04/10 12:26:53;;;;;;;;;;;14.20;35.30;;;;;;4997528;28;19909;-54
2022/04/10 12:29:19;;;;;;;;;;;13.60;39.40;;;;;;4997515;28;19910;-55
2022/04/10 12:31:45;;;;;;;;;;;13.40;35.40;;;;;;4997365;28;19909;-54
2022/04/10 12:34:13;;;;;;;;;;;13.30;36.80;;;;;;4997424;28;19916;-56
2022/04/10 12:36:48;;;;;;;;;;;13.50;38.30;;;;;;4997203;28;20007;-55
2022/04/10 12:39:24;;;;;;;;;;;13.80;39.30;;;;;;4997089;28;19964;-55
2022/04/10 12:42:00;;;;;;;;;;;13.90;37.70;;;;;;4997062;28;19914;-54
2022/04/10 12:44:26;;;;;;;;;;;13.30;38.50;;;;;;4997056;28;19921;-54
2022/04/10 12:46:52;;;;;;;;;;;13.40;40.10;;;;;;4997215;28;19909;-60
2022/04/10 12:49:18;;;;;;;;;;;13.30;40.20;;;;;;4997150;28;19920;-56
2022/04/10 12:51:48;;;;;;;;;;;13.40;41.80;;;;;;4996866;28;19933;-55
2022/04/10 12:54:13;;;;;;;;;;;13.90;41.90;;;;;;4996951;28;20400;-54
2022/04/10 12:56:39;;;;;;;;;;;14.20;38.80;;;;;;4995334;28;19922;-54
2022/04/10 12:59:04;;;;;;;;;;;14.20;38.20;;;;;;4997069;28;20400;-55
2022/04/10 13:01:30;;;;;;;;;;;13.60;38.70;;;;;;4996926;28;20017;-53
2022/04/10 13:03:58;;;;;;;;;;;13.40;39.50;;;;;;4996649;28;19926;-55
2022/04/10 13:06:27;;;;;;;;;;;13.80;40.30;;;;;;4996675;28;19910;-73
2022/04/10 13:09:08;;;;;;;;;;;14.30;39.40;;;;;;4996825;28;19916;-76
2022/04/10 13:11:37;;;;;;;;;;;14.60;36.50;;;;;;4996649;28;19910;-76
2022/04/10 13:14:08;;;;;;;;;;;14.80;32.70;;;;;;4996852;28;19910;-75
2022/04/10 13:16:37;;;;;;;;;;;15.00;32.10;;;;;;4996356;28;19914;-73
2022/04/10 13:19:07;;;;;;;;;;;15.30;31.10;;;;;;4996551;28;19910;-67
2022/04/10 13:21:33;;;;;;;;;;;15.30;28.90;;;;;;4996441;28;19910;-71
2022/04/10 13:23:58;;;;;;;;;;;14.90;29.70;;;;;;4996642;28;19988;-69
2022/04/10 13:26:24;;;;;;;;;;;15.10;32.80;;;;;;4996442;28;20444;-74
2022/04/10 13:28:49;;;;;;;;;;;15.00;29.80;;;;;;4996113;28;20312;-68
2022/04/10 13:31:15;;;;;;;;;;;15.00;29.80;;;;;;4995206;28;19910;-67
2022/04/10 13:33:40;;;;;;;;;;;14.80;30.30;;;;;;4996213;28;20369;-64
2022/04/10 13:36:06;;;;;;;;;;;14.80;30.10;;;;;;4996252;28;19910;-54
2022/04/10 13:38:31;;;;;;;;;;;14.70;37.40;;;;;;4995995;28;20253;-74
2022/04/10 13:40:57;;;;;;;;;;;14.90;37.10;;;;;;4996060;28;19914;-63
2022/04/10 13:43:22;;;;;;;;;;;14.80;38.70;;;;;;4996146;28;19917;-68
2022/04/10 13:45:48;;;;;;;;;;;14.70;40.30;;;;;;4995939;28;19910;-70
2022/04/10 13:48:14;;;;;;;;;;;14.10;38.90;;;;;;4995999;28;20313;-69
2022/04/10 13:50:39;;;;;;;;;;;13.90;40.20;;;;;;4995825;28;19932;-69
2022/04/10 13:53:05;;;;;;;;;;;13.80;39.60;;;;;;4995783;28;20392;-65
2022/04/10 13:55:31;;;;;;;;;;;13.90;37.50;;;;;;4995495;28;19922;-66
2022/04/10 13:57:56;;;;;;;;;;;14.10;38.20;;;;;;4994521;28;19914;-74
2022/04/10 14:00:22;;;;;;;;;;;14.50;37.30;;;;;;4995768;28;19955;-62
2022/04/10 14:02:47;;;;;;;;;;;14.70;34.80;;;;;;4995643;28;19926;-54
2022/04/10 14:05:13;;;;;;;;;;;14.80;35.70;;;;;;4995538;28;19916;-67
2022/04/10 14:07:38;;;;;;;;;;;15.00;35.80;;;;;;4995760;28;19988;-68
2022/04/10 14:10:04;;;;;;;;;;;15.20;36.00;;;;;;4995662;28;19949;-67
2022/04/10 14:12:29;;;;;;;;;;;15.00;35.30;;;;;;4995298;28;19953;-63
2022/04/10 14:14:56;;;;;;;;;;;14.40;37.60;;;;;;4995423;28;20010;-66
2022/04/10 14:17:22;;;;;;;;;;;14.50;40.50;;;;;;4995549;28;19910;-68
2022/04/10 14:19:48;;;;;;;;;;;14.50;42.20;;;;;;4995445;28;19917;-56
2022/04/10 14:22:13;;;;;;;;;;;14.60;40.80;;;;;;4994940;28;19914;-55
2022/04/10 14:24:39;;;;;;;;;;;14.70;40.10;;;;;;4995129;28;19914;-61
2022/04/10 14:27:04;;;;;;;;;;;14.90;39.20;;;;;;4995185;28;19910;-67